Williams Lake Airport

CYWL | YWL

Williams Lake , British-Columbia , Canada

Wednesday, October 23rd, 2019 | 21:52

Weather

CYWL 240436Z 12009KT 15SM BKN065 OVC100 05/M00 A3026 RMK SC5AC3 SLP279

Charts

No Charts Available

Gates

No Gates Available

Runways

1 Available

Events

No events for this airport


New event